<?xml version="1.0" encoding="UTF-8" standalone="no" ?>
<gpx xmlns="http://www.topografix.com/GPX/1/1" xmlns:xsi="http://www.w3.org/2001/XMLSchema-instance" xsi:schemaLocation="http://www.topografix.com/GPX/1/1 http://www.topografix.com/GPX/1/1/gpx.xsd" version="1.1" creator="VisuGPX - https://www.visugpx.com">
  <metadata>
    <name>Peillac_ChemnRonde_11.4km</name>
    <desc><![CDATA[WE le 20/10/07 gnerando idor:8152043]]></desc>
  </metadata>
  <trk>
    <name><![CDATA[Peillac_CheminRonde_11.4km-8152043]]></name>
    <extensions>
      <line xmlns="http://www.topografix.com/GPX/gpx_style/0/2">
        <color>0000FF</color>
        <width>4</width>
      </line>
    </extensions>
    <trkseg>
      <trkpt lat="47.71341" lon="-2.21855">
        <ele>65</ele>
        <time>2023-11-09T16:58:36Z</time>
      </trkpt>
      <trkpt lat="47.71334" lon="-2.21769">
        <ele>64</ele>
        <time>2023-11-09T16:59:54Z</time>
      </trkpt>
      <trkpt lat="47.71421" lon="-2.21756">
        <ele>63</ele>
        <time>2023-11-09T17:01:50Z</time>
      </trkpt>
      <trkpt lat="47.71787" lon="-2.21876">
        <ele>56</ele>
        <time>2023-11-09T17:10:11Z</time>
      </trkpt>
      <trkpt lat="47.71845" lon="-2.22091">
        <ele>53</ele>
        <time>2023-11-09T17:13:39Z</time>
      </trkpt>
      <trkpt lat="47.72241" lon="-2.21992">
        <ele>45</ele>
        <time>2023-11-09T17:22:34Z</time>
      </trkpt>
      <trkpt lat="47.72379" lon="-2.21778">
        <ele>54</ele>
        <time>2023-11-09T17:27:01Z</time>
      </trkpt>
      <trkpt lat="47.72454" lon="-2.21773">
        <ele>50</ele>
        <time>2023-11-09T17:28:41Z</time>
      </trkpt>
      <trkpt lat="47.72578" lon="-2.22095">
        <ele>35</ele>
        <time>2023-11-09T17:34:14Z</time>
      </trkpt>
      <trkpt lat="47.72653" lon="-2.22069">
        <ele>13</ele>
        <time>2023-11-09T17:35:57Z</time>
      </trkpt>
      <trkpt lat="47.72581" lon="-2.21657">
        <ele>12</ele>
        <time>2023-11-09T17:42:19Z</time>
      </trkpt>
      <trkpt lat="47.725" lon="-2.21542">
        <ele>17</ele>
        <time>2023-11-09T17:44:48Z</time>
      </trkpt>
      <trkpt lat="47.7248" lon="-2.21383">
        <ele>9</ele>
        <time>2023-11-09T17:47:13Z</time>
      </trkpt>
      <trkpt lat="47.72515" lon="-2.21275">
        <ele>8</ele>
        <time>2023-11-09T17:49:01Z</time>
      </trkpt>
      <trkpt lat="47.72454" lon="-2.20984">
        <ele>20</ele>
        <time>2023-11-09T17:53:35Z</time>
      </trkpt>
      <trkpt lat="47.72451" lon="-2.20821">
        <ele>12</ele>
        <time>2023-11-09T17:56:01Z</time>
      </trkpt>
      <trkpt lat="47.7242" lon="-2.20546">
        <ele>15</ele>
        <time>2023-11-09T18:00:11Z</time>
      </trkpt>
      <trkpt lat="47.7244" lon="-2.20194">
        <ele>11</ele>
        <time>2023-11-09T18:05:28Z</time>
      </trkpt>
      <trkpt lat="47.72405" lon="-2.20044">
        <ele>11</ele>
        <time>2023-11-09T18:07:51Z</time>
      </trkpt>
      <trkpt lat="47.72339" lon="-2.19598">
        <ele>13</ele>
        <time>2023-11-09T18:14:41Z</time>
      </trkpt>
      <trkpt lat="47.72186" lon="-2.18473">
        <ele>16</ele>
        <time>2023-11-09T18:31:51Z</time>
      </trkpt>
      <trkpt lat="47.71848" lon="-2.16945">
        <ele>19</ele>
        <time>2023-11-09T18:55:55Z</time>
      </trkpt>
      <trkpt lat="47.71911" lon="-2.16988">
        <ele>8</ele>
        <time>2023-11-09T18:57:28Z</time>
      </trkpt>
      <trkpt lat="47.72033" lon="-2.16945">
        <ele>5</ele>
        <time>2023-11-09T19:00:15Z</time>
      </trkpt>
      <trkpt lat="47.72264" lon="-2.18422">
        <ele>6</ele>
        <time>2023-11-09T19:22:56Z</time>
      </trkpt>
      <trkpt lat="47.72321" lon="-2.18872">
        <ele>8</ele>
        <time>2023-11-09T19:29:48Z</time>
      </trkpt>
      <trkpt lat="47.7233" lon="-2.19198">
        <ele>8</ele>
        <time>2023-11-09T19:34:40Z</time>
      </trkpt>
      <trkpt lat="47.72345" lon="-2.19404">
        <ele>7</ele>
        <time>2023-11-09T19:37:46Z</time>
      </trkpt>
      <trkpt lat="47.72316" lon="-2.1967">
        <ele>18</ele>
        <time>2023-11-09T19:41:48Z</time>
      </trkpt>
      <trkpt lat="47.72269" lon="-2.19928">
        <ele>21</ele>
        <time>2023-11-09T19:45:48Z</time>
      </trkpt>
      <trkpt lat="47.72301" lon="-2.20181">
        <ele>36</ele>
        <time>2023-11-09T19:49:39Z</time>
      </trkpt>
      <trkpt lat="47.72238" lon="-2.20246">
        <ele>37</ele>
        <time>2023-11-09T19:51:22Z</time>
      </trkpt>
      <trkpt lat="47.72177" lon="-2.20533">
        <ele>37</ele>
        <time>2023-11-09T19:55:52Z</time>
      </trkpt>
      <trkpt lat="47.72246" lon="-2.20589">
        <ele>35</ele>
        <time>2023-11-09T19:57:37Z</time>
      </trkpt>
      <trkpt lat="47.72342" lon="-2.21112">
        <ele>42</ele>
        <time>2023-11-09T20:05:43Z</time>
      </trkpt>
      <trkpt lat="47.72379" lon="-2.21134">
        <ele>38</ele>
        <time>2023-11-09T20:06:37Z</time>
      </trkpt>
      <trkpt lat="47.72394" lon="-2.21293">
        <ele>28</ele>
        <time>2023-11-09T20:09:01Z</time>
      </trkpt>
      <trkpt lat="47.72347" lon="-2.21348">
        <ele>28</ele>
        <time>2023-11-09T20:10:21Z</time>
      </trkpt>
      <trkpt lat="47.72365" lon="-2.21417">
        <ele>20</ele>
        <time>2023-11-09T20:11:27Z</time>
      </trkpt>
      <trkpt lat="47.72238" lon="-2.21512">
        <ele>29</ele>
        <time>2023-11-09T20:14:37Z</time>
      </trkpt>
      <trkpt lat="47.72244" lon="-2.21687">
        <ele>39</ele>
        <time>2023-11-09T20:17:14Z</time>
      </trkpt>
      <trkpt lat="47.72218" lon="-2.21971">
        <ele>44</ele>
        <time>2023-11-09T20:21:31Z</time>
      </trkpt>
      <trkpt lat="47.71816" lon="-2.22117">
        <ele>54</ele>
        <time>2023-11-09T20:30:44Z</time>
      </trkpt>
      <trkpt lat="47.7177" lon="-2.21838">
        <ele>57</ele>
        <time>2023-11-09T20:35:02Z</time>
      </trkpt>
      <trkpt lat="47.7136" lon="-2.21739">
        <ele>64</ele>
        <time>2023-11-09T20:44:16Z</time>
      </trkpt>
      <trkpt lat="47.71334" lon="-2.21868">
        <ele>65</ele>
        <time>2023-11-09T20:46:17Z</time>
      </trkpt>
    </trkseg>
  </trk>
</gpx>